Flugplatz Linkenheim

Für EDRI sind keine METAR/TAF Berichte vorhanden.
Es werden die Flugwettermeldungen vom Flugplatz Mannheim-City in 37 km Entfernung angezeigt.

Bericht für EDFM

vom 10.04. um 11:20 UTC

Wind 8 kt aus 190°

Sichtweite 10 km oder mehr

aufgebrochene Bewölkung in 3100 ft

Temperatur 12.0°C

Taupunkt 5.0°C

Luftfeuchtigkeit 62%

Luftdruck 1015 hPa

EDFM 101120Z 19008KT 160V220 9999 BKN031 12/05 Q1015
Keine Prognose (TAF) verfügbar.
Impressum